PWSweather.com
Personal Weather Stations
Station Observations
J24K28P63
Vysocina, PocatkyCZ 39464

VysocinaPocatkyCZ 39464

Lat: 49.2594238, Lon: 15.2331769

Elevation: 2011

Station Type: Vantage Pro2+

http://meteo-jirkalina.com

Latest ConditionsUpdated 8:30:10 PM GMT+01:01 Wednesday, Dec 12, 2018
Currently Today's Max Today's Min Today's Average
Temperature 27.2°F-2.7°C 37.7°F3.2°C 27.0°F-2.8°C 32.9°F0.5°C
Dew Point 25.7°F-3.5°C 36.0°F2.2°C 25.0°F-3.9°C 31.8°F-0.1°C
Winds Calm Calm 8.0 mph -12.9 kmh - - 1.5 mph 2.4 kmh
Wind Gusts -- 12.0 mph19.3 kmh - -
Humidity 94% 99% 87% 96%
Pressure 30.14 in1020.7 mb 30.20 in1022.7 mb 29.99 in1015.6 mb -
Precipitation - 0.33 in8.4 mm - -
Hour Temp Dew Point Humidity Winds Wind Gusts Pressure Precip Precip Rate Daily Precip Total
08:30 PM 27.2°F-2.7°C 25.7°F-3.5°C 94% Calm Calm -- 30.14 in1020.7 mb - 0.00 in0.0 mm 0.33 in8.4 mm
08:00 PM 27.0°F-2.8°C 25.0°F-3.9°C 92% Calm Calm -- 30.14 in1020.7 mb - 0.00 in0.0 mm 0.33 in8.4 mm
07:30 PM 27.5°F-2.5°C 25.2°F-3.8°C 91% Calm Calm -- 30.14 in1020.7 mb - 0.00 in0.0 mm 0.33 in8.4 mm
07:00 PM 27.8°F-2.3°C 25.5°F-3.6°C 91% Calm Calm -- 30.13 in1020.3 mb - 0.00 in0.0 mm 0.33 in8.4 mm
06:30 PM 28.1°F-2.2°C 25.8°F-3.4°C 91% Calm Calm -- 30.13 in1020.3 mb - 0.00 in0.0 mm 0.33 in8.4 mm
06:00 PM 28.7°F-1.8°C 27.4°F-2.6°C 95% Calm Calm -- 30.12 in1020.0 mb - 0.00 in0.0 mm 0.33 in8.4 mm
05:30 PM 28.5°F-1.9°C 27.0°F-2.8°C 94% Calm Calm -- 30.12 in1020.0 mb - 0.00 in0.0 mm 0.33 in8.4 mm
05:00 PM 29.0°F-1.7°C 27.7°F-2.4°C 95% Calm Calm -- 30.12 in1020.0 mb - 0.00 in0.0 mm 0.33 in8.4 mm
04:30 PM 29.3°F-1.5°C 27.8°F-2.3°C 94% Calm Calm -- 30.11 in1019.6 mb - 0.01 in0.3 mm 0.33 in8.4 mm
04:00 PM 29.5°F-1.4°C 28.0°F-2.2°C 94% Calm Calm -- 30.11 in1019.6 mb - 0.01 in0.3 mm 0.32 in8.1 mm
03:30 PM 31.6°F-0.2°C 30.8°F-0.7°C 97% Calm Calm -- 30.10 in1019.3 mb - 0.02 in0.5 mm 0.31 in7.9 mm
03:20 PM 36.0°F2.2°C 33.9°F1.1°C 92% 2.0 mph NNE3.2 kmh NNE 3.0 mph4.8 kmh 30.20 in1022.7 mb - 0.00 in0.0 mm 0.05 in1.3 mm
03:10 PM 36.1°F2.3°C 33.7°F0.9°C 91% 2.0 mph NNE3.2 kmh NNE 3.0 mph4.8 kmh 30.20 in1022.7 mb - 0.00 in0.0 mm 0.05 in1.3 mm
03:00 PM 31.8°F-0.1°C 30.8°F-0.7°C 96% Calm Calm -- 30.10 in1019.3 mb - 0.03 in0.8 mm 0.29 in7.4 mm
02:50 PM 36.2°F2.3°C 33.8°F1.0°C 91% 5.0 mph N8.0 kmh N 6.0 mph9.7 kmh 30.20 in1022.7 mb - 0.00 in0.0 mm 0.05 in1.3 mm
02:40 PM 36.4°F2.4°C 34.0°F1.1°C 91% 3.0 mph N4.8 kmh N 5.0 mph8.0 kmh 30.20 in1022.7 mb - 0.00 in0.0 mm 0.05 in1.3 mm
02:30 PM 32.4°F0.2°C 31.4°F-0.3°C 96% Calm Calm -- 30.09 in1019.0 mb - 0.00 in0.0 mm 0.25 in6.4 mm
02:20 PM 36.9°F2.7°C 34.8°F1.6°C 92% 3.0 mph N4.8 kmh N 5.0 mph8.0 kmh 30.19 in1022.4 mb - 0.00 in0.0 mm 0.05 in1.3 mm
02:10 PM 36.6°F2.6°C 34.5°F1.4°C 92% 3.0 mph N4.8 kmh N 3.0 mph4.8 kmh 30.19 in1022.4 mb - 0.00 in0.0 mm 0.05 in1.3 mm
02:00 PM 32.5°F0.3°C 31.5°F-0.3°C 96% Calm Calm -- 30.10 in1019.3 mb - 0.02 in0.5 mm 0.25 in6.4 mm
01:50 PM 37.2°F2.9°C 34.8°F1.6°C 91% 3.0 mph NNW4.8 kmh NNW 5.0 mph8.0 kmh 30.19 in1022.4 mb - 0.00 in0.0 mm 0.05 in1.3 mm
01:40 PM 37.2°F2.9°C 34.8°F1.6°C 91% 6.0 mph N9.7 kmh N 7.0 mph11.3 kmh 30.18 in1022.0 mb - 0.00 in0.0 mm 0.05 in1.3 mm
01:30 PM 32.5°F0.3°C 31.2°F-0.4°C 95% Calm Calm -- 30.10 in1019.3 mb - 0.01 in0.3 mm 0.24 in6.1 mm
01:20 PM 37.7°F3.2°C 35.3°F1.8°C 91% 8.0 mph N12.9 kmh N 12.0 mph19.3 kmh 30.18 in1022.0 mb - 0.00 in0.0 mm 0.05 in1.3 mm
01:10 PM 37.5°F3.1°C 35.4°F1.9°C 92% 7.0 mph N11.3 kmh N 9.0 mph14.5 kmh 30.18 in1022.0 mb - 0.00 in0.0 mm 0.05 in1.3 mm
01:00 PM 32.4°F0.2°C 31.1°F-0.5°C 95% Calm Calm -- 30.10 in1019.3 mb - 0.00 in0.0 mm 0.23 in5.8 mm
12:30 PM 32.4°F0.2°C 31.1°F-0.5°C 95% Calm Calm -- 30.10 in1019.3 mb - 0.01 in0.3 mm 0.23 in5.8 mm
12:20 PM 37.3°F2.9°C 33.8°F1.0°C 87% 2.0 mph SSE3.2 kmh SSE 2.0 mph3.2 kmh 30.17 in1021.7 mb - 0.00 in0.0 mm 0.05 in1.3 mm
12:10 PM 37.2°F2.9°C 33.9°F1.1°C 88% 2.0 mph S3.2 kmh S 3.0 mph4.8 kmh 30.17 in1021.7 mb - 0.00 in0.0 mm 0.05 in1.3 mm
12:00 PM 32.5°F0.3°C 31.5°F-0.3°C 96% Calm Calm -- 30.10 in1019.3 mb - 0.01 in0.3 mm 0.22 in5.6 mm
11:50 AM 37.0°F2.8°C 34.3°F1.3°C 90% 1.0 mph SSE1.6 kmh SSE 2.0 mph3.2 kmh 30.17 in1021.7 mb - 0.00 in0.0 mm 0.05 in1.3 mm
11:40 AM 36.7°F2.6°C 35.9°F2.2°C 97% 5.0 mph NW8.0 kmh NW 9.0 mph14.5 kmh 30.17 in1021.7 mb - 0.00 in0.0 mm 0.05 in1.3 mm
11:30 AM 31.9°F-0.1°C 30.9°F-0.6°C 96% Calm Calm -- 30.10 in1019.3 mb - 0.03 in0.8 mm 0.21 in5.3 mm
11:20 AM 36.5°F2.5°C 36.0°F2.2°C 98% 6.0 mph N9.7 kmh N 12.0 mph19.3 kmh 30.17 in1021.7 mb - 0.00 in0.0 mm 0.05 in1.3 mm
11:10 AM 36.5°F2.5°C 36.0°F2.2°C 98% 6.0 mph W9.7 kmh W 7.0 mph11.3 kmh 30.17 in1021.7 mb - 0.00 in0.0 mm 0.05 in1.3 mm
11:00 AM 31.9°F-0.1°C 30.9°F-0.6°C 96% Calm Calm -- 30.10 in1019.3 mb - 0.02 in0.5 mm 0.18 in4.6 mm
10:50 AM 36.4°F2.4°C 35.9°F2.2°C 98% 7.0 mph WNW11.3 kmh WNW 8.0 mph12.9 kmh 30.17 in1021.7 mb - 0.00 in0.0 mm 0.05 in1.3 mm
10:40 AM 36.4°F2.4°C 35.9°F2.2°C 98% 6.0 mph WNW9.7 kmh WNW 8.0 mph12.9 kmh 30.17 in1021.7 mb - 0.00 in0.0 mm 0.05 in1.3 mm
10:30 AM 31.9°F-0.1°C 31.1°F-0.5°C 97% Calm Calm -- 30.10 in1019.3 mb - 0.02 in0.5 mm 0.16 in4.1 mm
10:20 AM 36.3°F2.4°C 35.8°F2.1°C 98% 5.0 mph WNW8.0 kmh WNW 8.0 mph12.9 kmh 30.17 in1021.7 mb - 0.00 in0.0 mm 0.05 in1.3 mm
10:10 AM 36.2°F2.3°C 35.7°F2.1°C 98% 5.0 mph WNW8.0 kmh WNW 5.0 mph8.0 kmh 30.17 in1021.7 mb - 0.00 in0.0 mm 0.05 in1.3 mm
10:00 AM 31.9°F-0.1°C 31.4°F-0.3°C 98% Calm Calm -- 30.09 in1019.0 mb - 0.01 in0.3 mm 0.14 in3.6 mm
09:50 AM 36.2°F2.3°C 35.7°F2.1°C 98% 3.0 mph WNW4.8 kmh WNW 7.0 mph11.3 kmh 30.16 in1021.3 mb - 0.00 in0.0 mm 0.05 in1.3 mm
09:40 AM 36.1°F2.3°C 35.6°F2.0°C 98% 3.0 mph WNW4.8 kmh WNW 3.0 mph4.8 kmh 30.16 in1021.3 mb - 0.00 in0.0 mm 0.05 in1.3 mm
09:30 AM 31.6°F-0.2°C 31.1°F-0.5°C 98% Calm Calm -- 30.09 in1019.0 mb - 0.01 in0.3 mm 0.13 in3.3 mm
09:20 AM 36.0°F2.2°C 35.5°F1.9°C 98% 2.0 mph WNW3.2 kmh WNW 3.0 mph4.8 kmh 30.16 in1021.3 mb - 0.00 in0.0 mm 0.05 in1.3 mm
09:00 AM 31.5°F-0.3°C 31.0°F-0.6°C 98% Calm Calm -- 30.08 in1018.6 mb - 0.00 in0.0 mm 0.12 in3.0 mm
08:30 AM 31.2°F-0.4°C 30.7°F-0.7°C 98% Calm Calm -- 30.07 in1018.3 mb - 0.00 in0.0 mm 0.12 in3.0 mm
08:00 AM 31.0°F-0.6°C 30.5°F-0.8°C 98% Calm Calm -- 30.07 in1018.3 mb - 0.01 in0.3 mm 0.12 in3.0 mm
07:30 AM 30.9°F-0.6°C 30.4°F-0.9°C 98% Calm Calm -- 30.06 in1017.9 mb - 0.00 in0.0 mm 0.12 in3.0 mm
07:00 AM 31.0°F-0.6°C 30.5°F-0.8°C 98% Calm Calm -- 30.05 in1017.6 mb - 0.01 in0.3 mm 0.12 in3.0 mm
06:30 AM 31.0°F-0.6°C 30.5°F-0.8°C 98% Calm Calm -- 30.05 in1017.6 mb - 0.00 in0.0 mm 0.11 in2.8 mm
06:00 AM 31.0°F-0.6°C 30.8°F-0.7°C 99% Calm Calm -- 30.04 in1017.3 mb - 0.00 in0.0 mm 0.11 in2.8 mm
05:30 AM 31.2°F-0.4°C 30.9°F-0.6°C 99% Calm Calm -- 30.03 in1016.9 mb - 0.01 in0.3 mm 0.11 in2.8 mm
05:00 AM 31.0°F-0.6°C 30.8°F-0.7°C 99% Calm Calm -- 30.03 in1016.9 mb - 0.03 in0.8 mm 0.10 in2.5 mm
04:00 AM 31.8°F-0.1°C 31.6°F-0.2°C 99% Calm Calm -- 30.02 in1016.6 mb - 0.01 in0.3 mm 0.07 in1.8 mm
03:30 AM 31.8°F-0.1°C 31.6°F-0.2°C 99% Calm Calm -- 30.02 in1016.6 mb - 0.02 in0.5 mm 0.07 in1.8 mm
03:00 AM 31.8°F-0.1°C 31.6°F-0.2°C 99% Calm Calm -- 30.01 in1016.3 mb - 0.01 in0.3 mm 0.05 in1.3 mm
02:30 AM 31.8°F-0.1°C 31.6°F-0.2°C 99% 0.2 mph WNW0.3 kmh WNW 2.0 mph3.2 kmh 30.01 in1016.3 mb - 0.00 in0.0 mm 0.05 in1.3 mm
02:00 AM 31.8°F-0.1°C 31.6°F-0.2°C 99% 0.1 mph W0.2 kmh W 1.0 mph1.6 kmh 30.00 in1015.9 mb - 0.01 in0.3 mm 0.04 in1.0 mm
01:30 AM 31.8°F-0.1°C 31.6°F-0.2°C 99% 0.1 mph WNW0.2 kmh WNW 1.0 mph1.6 kmh 30.00 in1015.9 mb - 0.02 in0.5 mm 0.03 in0.8 mm
01:00 AM 31.8°F-0.1°C 31.6°F-0.2°C 99% Calm Calm -- 30.00 in1015.9 mb - 0.02 in0.5 mm 0.02 in0.5 mm
12:30 AM 31.6°F-0.2°C 31.4°F-0.3°C 99% Calm Calm -- 30.00 in1015.9 mb - 0.00 in0.0 mm 0.02 in0.5 mm
12:00 AM 31.6°F-0.2°C 31.4°F-0.3°C 99% Calm Calm -- 29.99 in1015.6 mb - 0.02 in0.5 mm 0.02 in0.5 mm